createdAt,value
2022-08-05T00:01:28.160Z,2.17
2022-08-05T00:03:57.132Z,2.08
2022-08-05T00:06:30.655Z,2.20
2022-08-05T00:09:00.385Z,2.33
2022-08-05T00:11:30.598Z,2.17
2022-08-05T00:14:12.739Z,2.33
2022-08-05T00:16:52.670Z,2.42
2022-08-05T00:19:23.292Z,2.10
2022-08-05T00:21:51.886Z,2.38
2022-08-05T00:24:24.899Z,2.30
2022-08-05T00:26:58.561Z,2.20
2022-08-05T00:29:26.044Z,2.35
2022-08-05T00:32:13.476Z,2.30
2022-08-05T00:35:04.825Z,2.50
2022-08-05T00:37:50.632Z,2.22
2022-08-05T00:40:26.918Z,2.10
2022-08-05T00:42:54.979Z,2.28
2022-08-05T00:45:28.399Z,2.58
2022-08-05T00:48:09.436Z,2.08
2022-08-05T00:50:37.142Z,2.35
2022-08-05T00:53:09.734Z,2.20
2022-08-05T00:55:50.923Z,2.30
2022-08-05T00:58:19.196Z,2.40
2022-08-05T01:00:47.710Z,2.50
2022-08-05T01:03:22.973Z,2.33
2022-08-05T01:05:51.223Z,2.33
2022-08-05T01:08:39.225Z,2.08
2022-08-05T01:11:14.011Z,2.13
2022-08-05T01:14:08.621Z,2.33
2022-08-05T01:17:06.474Z,2.22
2022-08-05T01:20:02.026Z,2.22
2022-08-05T01:22:35.811Z,2.40
2022-08-05T01:25:39.729Z,2.53
2022-08-05T01:28:24.285Z,2.13
2022-08-05T01:31:21.049Z,2.28
2022-08-05T01:33:54.366Z,2.20
2022-08-05T01:36:28.153Z,2.30
2022-08-05T01:39:00.969Z,2.38
2022-08-05T01:41:32.657Z,2.10
2022-08-05T01:44:00.819Z,2.35
2022-08-05T01:46:42.828Z,2.30
2022-08-05T01:49:22.894Z,2.20
2022-08-05T01:51:55.098Z,2.17
2022-08-05T01:54:27.139Z,2.35
2022-08-05T01:58:09.431Z,2.17
2022-08-05T01:59:48.419Z,2.28
2022-08-05T02:02:17.752Z,2.33
2022-08-05T02:04:49.712Z,2.63
2022-08-05T02:07:21.866Z,2.35
2022-08-05T02:09:51.981Z,2.15
2022-08-05T02:12:42.976Z,2.13
2022-08-05T02:15:24.271Z,2.15
2022-08-05T02:18:28.404Z,2.70
2022-08-05T02:20:58.717Z,2.35
2022-08-05T02:23:33.512Z,2.28
2022-08-05T02:26:05.136Z,2.75
2022-08-05T02:28:41.772Z,2.35
2022-08-05T02:31:17.254Z,2.22
2022-08-05T02:33:57.423Z,2.42
2022-08-05T02:36:31.361Z,2.42
2022-08-05T02:39:00.442Z,2.50
2022-08-05T02:41:36.148Z,2.30
2022-08-05T02:44:13.227Z,2.45
2022-08-05T02:46:53.159Z,2.33
2022-08-05T02:49:27.232Z,2.20
2022-08-05T02:52:04.952Z,2.60
2022-08-05T02:54:35.047Z,2.33
2022-08-05T02:57:10.182Z,2.42
2022-08-05T02:59:54.245Z,2.30
2022-08-05T03:02:24.350Z,2.25
2022-08-05T03:04:57.304Z,2.53
2022-08-05T03:07:59.372Z,2.35
2022-08-05T03:10:15.717Z,2.70
2022-08-05T03:12:51.856Z,2.42
2022-08-05T03:15:18.571Z,2.35
2022-08-05T03:17:45.069Z,2.53
2022-08-05T03:20:12.015Z,2.83
2022-08-05T03:22:43.892Z,3.10
2022-08-05T03:25:32.587Z,2.97
2022-08-05T03:27:59.954Z,2.45
2022-08-05T03:30:33.563Z,2.58
2022-08-05T03:33:05.740Z,2.70
2022-08-05T03:35:33.714Z,3.03
2022-08-05T03:38:01.157Z,3.22
2022-08-05T03:40:32.004Z,3.88
2022-08-05T03:42:59.500Z,3.58
2022-08-05T03:45:57.290Z,3.92
2022-08-05T03:48:25.334Z,2.85
2022-08-05T03:50:59.027Z,3.25
2022-08-05T03:55:51.172Z,3.38
2022-08-05T03:56:42.039Z,3.20
2022-08-05T03:59:47.411Z,3.03
2022-08-05T04:02:38.500Z,3.40
2022-08-05T04:05:09.541Z,3.15
2022-08-05T04:07:57.479Z,3.20
2022-08-05T04:10:27.877Z,3.22
2022-08-05T04:12:56.362Z,3.20
2022-08-05T04:15:26.453Z,3.10
2022-08-05T04:17:59.877Z,3.20
2022-08-05T04:20:26.612Z,3.40
2022-08-05T04:22:53.080Z,3.47
2022-08-05T04:25:19.921Z,3.25
2022-08-05T04:28:11.183Z,3.40
2022-08-05T04:30:39.094Z,3.33
2022-08-05T04:33:14.523Z,3.55
2022-08-05T04:36:15.956Z,3.13
2022-08-05T04:38:39.915Z,3.70
2022-08-05T04:41:09.311Z,3.20
2022-08-05T04:43:36.467Z,3.47
2022-08-05T04:46:05.160Z,3.13
2022-08-05T04:48:31.939Z,3.28
2022-08-05T04:51:02.552Z,3.33
2022-08-05T04:53:33.587Z,3.63
2022-08-05T04:56:32.341Z,3.58
2022-08-05T04:58:48.456Z,3.80
2022-08-05T05:01:15.070Z,3.58
2022-08-05T05:04:00.543Z,3.72
2022-08-05T05:06:40.281Z,3.55
2022-08-05T05:09:14.176Z,3.53
2022-08-05T05:11:55.693Z,3.40
2022-08-05T05:14:27.870Z,3.53
2022-08-05T05:16:59.096Z,3.72
2022-08-05T05:19:27.496Z,3.70
2022-08-05T05:22:22.936Z,3.92
2022-08-05T05:27:41.156Z,3.65
2022-08-05T05:30:15.301Z,3.50
2022-08-05T05:32:49.247Z,3.33
2022-08-05T05:35:19.901Z,3.80
2022-08-05T05:37:59.381Z,3.92
2022-08-05T05:40:30.803Z,4.03
2022-08-05T05:43:02.110Z,3.70
2022-08-05T05:45:29.095Z,3.75
2022-08-05T05:48:06.113Z,4.35
2022-08-05T05:50:41.040Z,3.58
2022-08-05T05:53:20.904Z,3.92
2022-08-05T05:55:52.530Z,3.50
2022-08-05T05:58:30.313Z,3.10
2022-08-05T06:01:12.376Z,3.30
2022-08-05T06:04:00.451Z,3.53
2022-08-05T06:06:28.127Z,3.10
2022-08-05T06:08:58.453Z,2.88
2022-08-05T06:11:24.978Z,2.90
2022-08-05T06:16:29.447Z,2.90
2022-08-05T06:19:00.271Z,2.80
2022-08-05T06:21:36.719Z,2.70
2022-08-05T06:24:12.050Z,2.53
2022-08-05T06:26:51.069Z,2.78
2022-08-05T06:29:43.145Z,2.53
2022-08-05T06:32:05.451Z,2.80
2022-08-05T06:34:48.372Z,2.60
2022-08-05T06:37:57.394Z,2.55
2022-08-05T06:40:07.966Z,2.33
2022-08-05T06:42:34.484Z,2.80
2022-08-05T06:45:05.590Z,2.95
2022-08-05T06:47:42.199Z,2.55
2022-08-05T06:50:27.178Z,2.33
2022-08-05T06:52:58.805Z,2.63
2022-08-05T06:55:37.825Z,2.22
2022-08-05T06:58:29.089Z,2.60
2022-08-05T07:00:59.763Z,2.40
2022-08-05T07:03:27.934Z,2.63
2022-08-05T07:05:59.224Z,2.13
2022-08-05T07:08:25.688Z,2.38
2022-08-05T07:10:53.602Z,2.15
2022-08-05T07:13:58.116Z,2.17
2022-08-05T07:18:00.690Z,2.38
2022-08-05T07:22:28.832Z,2.35
2022-08-05T07:24:59.896Z,2.03
2022-08-05T07:27:57.421Z,2.60
2022-08-05T07:30:38.303Z,2.20
2022-08-05T07:33:09.553Z,2.33
2022-08-05T07:36:02.656Z,2.08
2022-08-05T07:38:33.580Z,2.40
2022-08-05T07:42:07.407Z,2.38
2022-08-05T07:43:56.234Z,2.40
2022-08-05T07:46:27.074Z,2.28
2022-08-05T07:49:01.615Z,2.30
2022-08-05T07:51:36.798Z,2.30
2022-08-05T07:54:08.386Z,2.40
2022-08-05T07:57:01.506Z,2.13
2022-08-05T07:59:38.624Z,1.98
2022-08-05T08:02:15.820Z,2.00
2022-08-05T08:04:48.745Z,2.08
2022-08-05T08:07:17.823Z,1.80
2022-08-05T08:09:45.234Z,2.03
2022-08-05T08:12:35.397Z,2.05
2022-08-05T08:15:02.495Z,2.22
2022-08-05T08:17:30.420Z,2.00
2022-08-05T08:20:44.402Z,1.92
2022-08-05T08:22:59.494Z,1.80
2022-08-05T08:25:59.897Z,2.33
2022-08-05T08:28:18.664Z,2.00
2022-08-05T08:31:01.913Z,1.70
2022-08-05T08:33:30.890Z,2.20
2022-08-05T08:36:29.713Z,1.88
2022-08-05T08:38:53.456Z,1.73
2022-08-05T08:41:20.853Z,1.95
2022-08-05T08:45:19.091Z,3.70
2022-08-05T08:46:41.673Z,2.65
2022-08-05T08:50:23.139Z,2.30
2022-08-05T08:52:03.909Z,2.58
2022-08-05T08:54:42.282Z,1.63
2022-08-05T08:57:11.450Z,2.50
2022-08-05T08:59:42.046Z,2.33
2022-08-05T09:02:14.585Z,1.60
2022-08-05T09:04:58.235Z,1.80
2022-08-05T09:07:39.722Z,1.88
2022-08-05T09:10:19.128Z,1.80
2022-08-05T09:12:50.879Z,1.90
2022-08-05T09:15:20.254Z,1.85
2022-08-05T09:17:49.730Z,1.60
2022-08-05T09:20:36.501Z,1.83
2022-08-05T09:23:18.952Z,1.90
2022-08-05T09:26:02.077Z,1.50
2022-08-05T09:28:33.598Z,1.75
2022-08-05T09:32:08.513Z,1.80
2022-08-05T09:34:13.349Z,2.28
2022-08-05T09:36:55.923Z,1.40
2022-08-05T09:39:41.249Z,2.00
2022-08-05T09:44:52.601Z,1.90
2022-08-05T09:47:25.650Z,1.90
2022-08-05T09:50:02.255Z,1.90
2022-08-05T09:52:32.007Z,1.25
2022-08-05T09:55:06.424Z,1.33
2022-08-05T09:57:54.534Z,1.50
2022-08-05T10:00:25.919Z,1.27
2022-08-05T10:02:54.703Z,1.20
2022-08-05T10:05:26.813Z,1.30
2022-08-05T10:08:35.913Z,1.20
2022-08-05T10:10:54.266Z,1.10
2022-08-05T10:13:45.677Z,1.30
2022-08-05T10:16:37.897Z,1.35
2022-08-05T10:19:19.070Z,1.20
2022-08-05T10:21:50.658Z,1.42
2022-08-05T10:24:21.363Z,1.40
2022-08-05T10:26:56.218Z,1.30
2022-08-05T10:33:00.939Z,1.13
2022-08-05T10:35:03.057Z,1.17
2022-08-05T10:37:44.506Z,1.88
2022-08-05T10:40:45.074Z,1.35
2022-08-05T10:43:43.504Z,1.23
2022-08-05T10:46:13.421Z,1.20
2022-08-05T10:48:56.381Z,1.15
2022-08-05T10:51:29.365Z,1.45
2022-08-05T10:54:05.950Z,1.30
2022-08-05T10:56:57.711Z,1.20
2022-08-05T11:00:04.400Z,1.25
2022-08-05T11:02:37.832Z,1.20
2022-08-05T11:05:09.533Z,1.25
2022-08-05T11:08:02.439Z,1.40
2022-08-05T11:10:33.233Z,1.20
2022-08-05T11:13:01.310Z,1.27
2022-08-05T11:16:00.577Z,1.40
2022-08-05T11:18:34.777Z,1.42
2022-08-05T11:21:02.873Z,1.25
2022-08-05T11:23:49.834Z,1.40
2022-08-05T11:26:28.545Z,1.25
2022-08-05T11:29:11.979Z,1.35
2022-08-05T11:31:58.705Z,1.33
2022-08-05T11:34:47.564Z,1.52
2022-08-05T11:38:26.148Z,1.40
2022-08-05T11:41:56.087Z,1.60
2022-08-05T11:44:40.684Z,1.30
2022-08-05T11:47:14.068Z,1.88
2022-08-05T11:49:49.847Z,1.42
2022-08-05T11:52:29.379Z,1.77
2022-08-05T11:54:58.242Z,1.67
2022-08-05T11:57:39.398Z,1.50
2022-08-05T12:00:28.883Z,1.70
2022-08-05T12:02:56.619Z,1.70
2022-08-05T12:05:32.378Z,1.50
2022-08-05T12:08:10.724Z,1.25
2022-08-05T12:10:45.899Z,1.45
2022-08-05T12:13:28.203Z,1.42
2022-08-05T12:16:18.527Z,1.77
2022-08-05T12:18:48.710Z,1.23
2022-08-05T12:21:26.900Z,1.40
2022-08-05T12:24:00.182Z,1.20
2022-08-05T12:26:39.478Z,1.60
2022-08-05T12:29:15.970Z,1.50
2022-08-05T12:31:53.405Z,1.40
2022-08-05T12:34:29.951Z,1.42
2022-08-05T12:37:01.359Z,1.58
2022-08-05T12:39:37.181Z,1.38
2022-08-05T12:42:14.736Z,1.60
2022-08-05T12:44:43.158Z,1.55
2022-08-05T12:47:12.512Z,1.30
2022-08-05T12:50:04.622Z,1.40
2022-08-05T12:52:39.293Z,1.40
2022-08-05T12:55:23.589Z,1.20
2022-08-05T12:58:50.750Z,1.42
2022-08-05T13:02:03.683Z,1.10
2022-08-05T13:03:32.010Z,1.30
2022-08-05T13:05:59.865Z,1.58
2022-08-05T13:08:30.351Z,1.50
2022-08-05T13:11:01.344Z,1.45
2022-08-05T13:14:05.861Z,1.50
2022-08-05T13:16:17.001Z,1.48
2022-08-05T13:18:55.070Z,1.42
2022-08-05T13:21:27.962Z,1.70
2022-08-05T13:23:55.456Z,2.22
2022-08-05T13:26:27.213Z,1.52
2022-08-05T13:28:57.504Z,1.55
2022-08-05T13:32:02.814Z,1.50
2022-08-05T13:34:22.357Z,1.50
2022-08-05T13:36:52.034Z,1.50
2022-08-05T13:40:14.334Z,1.50
2022-08-05T13:44:32.463Z,1.90
2022-08-05T13:47:04.986Z,1.30
2022-08-05T13:49:35.548Z,1.60
2022-08-05T13:52:16.033Z,4.03
2022-08-05T13:54:43.036Z,1.60
2022-08-05T13:57:20.494Z,1.58
2022-08-05T13:59:57.376Z,2.00
2022-08-05T14:02:26.568Z,1.38
2022-08-05T14:05:12.027Z,2.08
2022-08-05T14:07:59.920Z,2.03
2022-08-05T14:10:31.670Z,1.58
2022-08-05T14:12:59.444Z,1.35
2022-08-05T14:16:08.353Z,1.13
2022-08-05T14:18:17.242Z,1.40
2022-08-05T14:20:47.301Z,1.65
2022-08-05T14:23:14.746Z,1.38
2022-08-05T14:25:54.203Z,1.65
2022-08-05T14:28:26.381Z,1.60
2022-08-05T14:30:54.007Z,1.55
2022-08-05T14:33:23.202Z,1.60
2022-08-05T14:35:51.505Z,1.50
2022-08-05T14:38:32.788Z,1.38
2022-08-05T14:41:06.820Z,1.77
2022-08-05T14:44:02.551Z,1.40
2022-08-05T14:46:29.124Z,1.40
2022-08-05T14:48:59.528Z,1.40
2022-08-05T14:54:26.685Z,1.60
2022-08-05T14:56:46.910Z,1.90
2022-08-05T14:59:13.862Z,1.70
2022-08-05T15:01:48.573Z,1.50
2022-08-05T15:04:16.004Z,1.50
2022-08-05T15:06:42.531Z,1.80
2022-08-05T15:09:16.012Z,1.70
2022-08-05T15:14:35.617Z,1.73
2022-08-05T15:17:44.238Z,1.50
2022-08-05T15:19:55.659Z,1.92
2022-08-05T15:22:22.469Z,1.52
2022-08-05T15:24:54.198Z,1.50
2022-08-05T15:27:20.801Z,1.48
2022-08-05T15:29:47.266Z,1.48
2022-08-05T15:32:16.418Z,1.42
2022-08-05T15:34:43.224Z,1.60
2022-08-05T15:37:15.561Z,1.92
2022-08-05T15:40:59.774Z,1.80
2022-08-05T15:42:54.051Z,1.60
2022-08-05T15:47:45.888Z,2.00
2022-08-05T15:50:15.861Z,1.60
2022-08-05T15:52:52.947Z,1.55
2022-08-05T15:55:24.988Z,1.88
2022-08-05T15:58:08.740Z,1.55
2022-08-05T16:01:04.279Z,1.42
2022-08-05T16:03:21.912Z,1.52
2022-08-05T16:05:52.420Z,1.58
2022-08-05T16:08:19.324Z,1.40
2022-08-05T16:10:45.820Z,1.75
2022-08-05T16:13:12.601Z,1.65
2022-08-05T16:15:51.801Z,1.88
2022-08-05T16:18:18.744Z,1.98
2022-08-05T16:20:46.363Z,1.95
2022-08-05T16:23:12.936Z,2.13
2022-08-05T16:25:40.028Z,2.88
2022-08-05T16:28:09.444Z,3.42
2022-08-05T16:30:36.935Z,2.70
2022-08-05T16:33:03.583Z,2.03
2022-08-05T16:35:32.321Z,1.80
2022-08-05T16:38:15.304Z,1.52
2022-08-05T16:43:18.826Z,1.88
2022-08-05T16:46:08.137Z,1.90
2022-08-05T16:48:33.571Z,2.00
2022-08-05T16:51:01.664Z,2.10
2022-08-05T16:53:32.250Z,1.75
2022-08-05T16:56:14.693Z,2.03
2022-08-05T16:58:41.320Z,2.20
2022-08-05T17:01:10.414Z,1.73
2022-08-05T17:03:37.468Z,1.95
2022-08-05T17:06:05.671Z,2.35
2022-08-05T17:08:35.821Z,1.90
2022-08-05T17:11:18.650Z,2.30
2022-08-05T17:13:45.808Z,1.80
2022-08-05T17:16:33.456Z,2.00
2022-08-05T17:19:01.688Z,2.00
2022-08-05T17:21:36.165Z,2.10
2022-08-05T17:24:18.731Z,2.13
2022-08-05T17:26:56.062Z,1.90
2022-08-05T17:29:33.072Z,3.92
2022-08-05T17:32:08.341Z,2.53
2022-08-05T17:34:35.138Z,2.40
2022-08-05T17:37:01.829Z,1.98
2022-08-05T17:39:33.369Z,2.00
2022-08-05T17:42:17.603Z,2.38
2022-08-05T17:44:50.518Z,2.30
2022-08-05T17:47:21.900Z,2.10
2022-08-05T17:49:52.150Z,3.00
2022-08-05T17:52:32.173Z,2.60
2022-08-05T17:54:58.785Z,2.10
2022-08-05T17:57:25.304Z,2.25
2022-08-05T18:00:04.761Z,2.30
2022-08-05T18:02:33.344Z,2.38
2022-08-05T18:05:03.690Z,2.20
2022-08-05T18:07:41.421Z,2.58
2022-08-05T18:10:11.130Z,2.22
2022-08-05T18:12:38.726Z,2.38
2022-08-05T18:18:00.393Z,2.42
2022-08-05T18:20:19.558Z,2.63
2022-08-05T18:22:57.550Z,2.83
2022-08-05T18:25:25.171Z,2.55
2022-08-05T18:27:59.134Z,2.53
2022-08-05T18:30:29.218Z,2.50
2022-08-05T18:33:00.517Z,2.63
2022-08-05T18:36:01.422Z,2.42
2022-08-05T18:38:16.492Z,2.33
2022-08-05T18:41:56.735Z,2.75
2022-08-05T18:43:38.300Z,2.08
2022-08-05T18:46:09.977Z,2.40
2022-08-05T18:48:41.594Z,3.08
2022-08-05T18:52:06.302Z,2.60
2022-08-05T18:54:13.685Z,2.45
2022-08-05T18:56:40.486Z,2.40
2022-08-05T18:59:44.409Z,2.42
2022-08-05T19:01:57.118Z,2.33
2022-08-05T19:04:25.661Z,2.83
2022-08-05T19:06:53.751Z,2.75
2022-08-05T19:09:20.623Z,2.65
2022-08-05T19:11:59.471Z,2.90
2022-08-05T19:14:52.098Z,2.88
2022-08-05T19:17:14.621Z,3.03
2022-08-05T19:19:46.750Z,3.22
2022-08-05T19:22:17.414Z,3.50
2022-08-05T19:24:56.118Z,3.78
2022-08-05T19:27:24.058Z,3.70
2022-08-05T19:29:56.436Z,3.63
2022-08-05T19:32:23.818Z,4.07
2022-08-05T19:34:55.175Z,4.15
2022-08-05T19:37:29.761Z,4.30
2022-08-05T19:40:01.977Z,4.65
2022-08-05T19:42:35.417Z,4.50
2022-08-05T19:45:05.606Z,4.22
2022-08-05T19:47:33.910Z,4.40
2022-08-05T19:52:31.458Z,4.18
2022-08-05T19:56:14.994Z,4.70
2022-08-05T19:58:14.671Z,4.38
2022-08-05T20:00:41.680Z,4.53
2022-08-05T20:03:08.544Z,4.68
2022-08-05T20:05:49.955Z,4.80
2022-08-05T20:08:16.948Z,4.72
2022-08-05T20:10:43.439Z,4.93
2022-08-05T20:13:10.930Z,4.75
2022-08-05T20:15:52.440Z,4.53
2022-08-05T20:18:35.756Z,4.80
2022-08-05T20:21:05.188Z,4.55
2022-08-05T20:23:40.480Z,4.63
2022-08-05T20:26:24.686Z,4.97
2022-08-05T20:28:55.555Z,4.43
2022-08-05T20:31:28.786Z,4.60
2022-08-05T20:34:04.320Z,4.75
2022-08-05T20:36:30.819Z,4.63
2022-08-05T20:38:59.317Z,4.60
2022-08-05T20:41:43.328Z,4.60
2022-08-05T20:44:17.888Z,4.75
2022-08-05T20:46:46.678Z,4.65
2022-08-05T20:49:13.845Z,4.88
2022-08-05T20:51:40.361Z,4.85
2022-08-05T20:54:07.016Z,4.75
2022-08-05T20:56:42.413Z,5.47
2022-08-05T20:59:18.925Z,5.47
2022-08-05T21:01:46.255Z,4.53
2022-08-05T21:04:13.776Z,5.25
2022-08-05T21:06:45.351Z,5.18
2022-08-05T21:09:14.438Z,5.22
2022-08-05T21:12:09.147Z,4.80
2022-08-05T21:14:29.282Z,5.03
2022-08-05T21:17:01.649Z,4.90
2022-08-05T21:19:29.759Z,4.78
2022-08-05T21:22:14.431Z,4.65
2022-08-05T21:24:40.996Z,4.07
2022-08-05T21:27:09.147Z,5.80
2022-08-05T21:29:40.764Z,5.65
2022-08-05T21:32:07.738Z,6.43
2022-08-05T21:34:35.589Z,6.43
2022-08-05T21:37:02.333Z,6.60
2022-08-05T21:39:29.390Z,7.22
2022-08-05T21:42:01.028Z,6.32
2022-08-05T21:44:28.498Z,6.32
2022-08-05T21:46:57.940Z,6.55
2022-08-05T21:49:48.435Z,6.35
2022-08-05T21:52:16.015Z,6.28
2022-08-05T21:54:51.287Z,6.05
2022-08-05T21:57:31.483Z,5.85
2022-08-05T22:00:06.180Z,5.53
2022-08-05T22:02:34.454Z,5.20
2022-08-05T22:05:00.946Z,5.03
2022-08-05T22:07:40.262Z,5.00
2022-08-05T22:10:16.186Z,5.00
2022-08-05T22:12:44.950Z,4.53
2022-08-05T22:16:01.813Z,4.70
2022-08-05T22:20:31.341Z,3.90
2022-08-05T22:23:21.395Z,4.18
2022-08-05T22:26:09.996Z,4.22
2022-08-05T22:28:38.586Z,4.40
2022-08-05T22:31:05.951Z,4.43
2022-08-05T22:33:58.571Z,3.67
2022-08-05T22:36:19.504Z,4.03
2022-08-05T22:38:51.826Z,3.72
2022-08-05T22:42:04.794Z,3.90
2022-08-05T22:44:08.378Z,3.53
2022-08-05T22:46:39.883Z,3.88
2022-08-05T22:49:23.225Z,3.45
2022-08-05T22:52:07.278Z,3.78
2022-08-05T22:54:39.655Z,3.63
2022-08-05T22:57:15.282Z,3.50
2022-08-05T22:59:46.227Z,3.80
2022-08-05T23:02:18.872Z,3.63
2022-08-05T23:04:56.800Z,3.65
2022-08-05T23:07:23.339Z,3.70
2022-08-05T23:09:57.333Z,3.22
2022-08-05T23:12:28.626Z,3.50
2022-08-05T23:14:55.471Z,3.30
2022-08-05T23:17:34.450Z,3.33
2022-08-05T23:20:16.423Z,3.50
2022-08-05T23:22:47.820Z,3.60
2022-08-05T23:25:17.650Z,3.17
2022-08-05T23:28:03.384Z,3.17
2022-08-05T23:30:40.540Z,3.95
2022-08-05T23:33:16.317Z,4.13
2022-08-05T23:35:52.625Z,3.50
2022-08-05T23:38:22.826Z,3.00
2022-08-05T23:40:50.679Z,3.05
2022-08-05T23:43:25.648Z,2.45
2022-08-05T23:46:21.118Z,2.85
2022-08-05T23:48:59.731Z,2.90
2022-08-05T23:51:53.474Z,2.65
2022-08-05T23:54:30.489Z,2.80
2022-08-05T23:57:03.274Z,3.10
